クライストチャーチ の空港の天気 - METARとTAF

クライストチャーチ国際空港 ( NZCH / CHC ) - ニュージーランド クライストチャーチ
飛行場実況気象(Metar)
観測時間09/27 21:30 NZDT (09/27 08:30 UTC)
風向・風速北東 3m/s
視程10km以上
天気現象
なし
気温4℃
湿度81%
気圧1021hPa
METARNZCH 270830Z AUTO 05006KT 9999 NCD 04/01 Q1021 NOSIG
過去の天気等 Google飛行場航空写真 Wunderground天気予報

過去48時間のMETAR

飛行場予報(TAF)
発表時間: 9/27 18:06 NZDT (9/27 05:06 UTC)
予報対象時間: 27日19時 NZDT ~ 28日19時 NZDT
風向・風速東北東 6m/s
視程10km以上
少しの雲 雲底高度 1070m
27日22時 NZDT ~ 27日24時 NZDT に徐々に
風向・風速不定 1m/s
28日11時 NZDT ~ 28日13時 NZDT に徐々に
風向・風速東北東 5m/s
TAF NZCH 270506Z 2706/2806 06012KT 9999 FEW035
BECMG 2709/2711 VRB02KT
BECMG 2722/2800 06010KT